Calabasas, CA (91302)

10:30 PM PST on February 20, 2017 (GMT -0800)
Calabasas - Park Belmonte | | Change Station

Elev 1438 ft 34.14 °N, 118.65 °W | Updated 9 seconds ago

Overcast
Overcast
53.6 °F
Feels Like 53.6 °F
N
0.0
Wind Variable Wind from East
Gusts 4.0 mph

Today
High -- | Low -- °F
--% Chance of Precip.
Yesterday
High -- | Low -- °F
Precip. -- in
Pressure 30.30 in
Visibility 6.0 miles
Clouds Scattered Clouds 600 ft
Mostly Cloudy 1100 ft
Overcast 2500 ft
Dew Point 52 °F
Humidity 96%
Rainfall 0.09 in
Snow Depth Not available.
6:33 AM 5:43 PM
Waning Crescent, 28% visible
SPECI KVNY 210611Z 11004KT 6SM BR SCT006 BKN011 OVC025 13/13 A3030 RMK AO2 T01330128
Pressure 30.30 in
Visibility 6.0 miles
Clouds Scattered Clouds 600 ft
Mostly Cloudy 1100 ft
Overcast 2500 ft
Dew Point 52 °F
Humidity 96%
Rainfall 0.09 in
Snow Depth Not available.
6:33 AM 5:43 PM
Waning Crescent, 28% visible
SPECI KVNY 210611Z 11004KT 6SM BR SCT006 BKN011 OVC025 13/13 A3030 RMK AO2 T01330128

Get Your Daily Forecast Email!

Thanks for signing up!

Be on the lookout for a verification email in your inbox.

You'll start receiving the daily forecast at 8 AM.

×

10-Day Weather Forecast

Almanac

Astronomy

Feb. 20, 2017 Rise Set
Actual Time
Civil Twilight
Nautical Twilight
Astronomical Twilight
Moon
Length of Visible Light
Length of Day
Tomorrow will be .
, % of the Moon is Illuminated

Today's Extremes

State Highs State Lows

Community

WunderPhotos

Upload Photos

1,962,540 photos uploaded!

WunderBlog® & News

Nearby

Air Quality

  Air Quality AQ Index Pollutant
Not available.

Snow Depth

Station Depth Elevation

Earthquake Activity

City Distance Mag. Time & Date
Minimum magnitude displayed is 2.5.

Coastal Water Temperatures

Place Temperature

Stations

Nearby Weather Stations

Station Location Temp. Windchill Dew Point Humidity Wind Precip. Elev Updated Type
                   

Watches & Warnings

There are currently no watches in effect.